Terminal Aerodrome Forecast
Issued by NWS

Home | Current Version | Previous Version | Graphics & Text | Print | Product List | Glossary On
Versions: 1 2 3 4 5 6 7 8 9 10 11 12 13 14 15 16 17
700
FTUS43 KGRB 240520
TAFATW
TAF
KATW 240520Z 2406/2506 18009KT P6SM BKN035 OVC150
      TEMPO 2407/2410 5SM -TSRA BR BKN018 OVC035CB
     FM241000 19009KT 2SM TSRA BR BKN006 OVC012CB
     FM241400 20011G18KT 5SM -SHRA BR BKN008 OVC015
     FM241800 22011G18KT 6SM HZ SCT015 BKN035
      TEMPO 2418/2420 BKN015
     FM250100 24008KT 6SM BR BKN015 BKN035=

USA.gov is the U.S. government's official web portal to all federal, state and local government web resources and services.